createdAt,value
2018-07-31T00:01:03.894Z,16.20
2018-07-31T00:03:31.789Z,17.27
2018-07-31T00:06:00.684Z,18.83
2018-07-31T00:08:28.589Z,24.57
2018-07-31T00:10:56.525Z,23.30
2018-07-31T00:13:24.439Z,25.20
2018-07-31T00:15:52.413Z,19.80
2018-07-31T00:18:20.332Z,21.03
2018-07-31T00:20:48.809Z,23.90
2018-07-31T00:23:17.450Z,22.83
2018-07-31T00:25:46.323Z,21.93
2018-07-31T00:28:14.192Z,19.33
2018-07-31T00:30:43.250Z,19.20
2018-07-31T00:33:11.660Z,17.13
2018-07-31T00:35:40.378Z,19.43
2018-07-31T00:38:08.309Z,29.47
2018-07-31T00:40:36.136Z,19.90
2018-07-31T00:43:03.881Z,17.50
2018-07-31T00:45:31.798Z,21.70
2018-07-31T00:48:00.188Z,19.23
2018-07-31T00:50:28.639Z,18.37
2018-07-31T00:52:56.982Z,21.90
2018-07-31T00:55:25.670Z,19.10
2018-07-31T00:57:53.582Z,22.80
2018-07-31T01:00:21.497Z,15.90
2018-07-31T01:02:51.266Z,17.80
2018-07-31T01:05:19.755Z,15.63
2018-07-31T01:07:47.670Z,20.77
2018-07-31T01:10:17.266Z,17.50
2018-07-31T01:12:45.242Z,19.67
2018-07-31T01:15:13.912Z,19.53
2018-07-31T01:17:41.821Z,21.73
2018-07-31T01:20:09.566Z,21.23
2018-07-31T01:22:37.354Z,23.00
2018-07-31T01:25:06.183Z,20.07
2018-07-31T01:27:34.143Z,19.33
2018-07-31T01:30:02.603Z,18.67
2018-07-31T01:32:31.365Z,23.90
2018-07-31T01:35:00.550Z,16.93
2018-07-31T01:37:28.481Z,14.77
2018-07-31T01:39:57.725Z,20.10
2018-07-31T01:42:25.621Z,26.30
2018-07-31T01:44:54.501Z,19.73
2018-07-31T01:47:22.735Z,19.37
2018-07-31T01:49:51.677Z,21.87
2018-07-31T01:52:19.440Z,19.97
2018-07-31T01:54:48.467Z,22.87
2018-07-31T01:57:18.497Z,25.43
2018-07-31T01:59:46.868Z,24.23
2018-07-31T02:02:15.623Z,19.17
2018-07-31T02:04:43.405Z,19.03
2018-07-31T02:07:14.973Z,20.37
2018-07-31T02:09:45.685Z,20.13
2018-07-31T02:12:14.331Z,21.50
2018-07-31T02:14:43.243Z,23.53
2018-07-31T02:17:12.840Z,17.20
2018-07-31T02:19:41.006Z,26.40
2018-07-31T02:22:11.194Z,19.20
2018-07-31T02:24:40.620Z,24.53
2018-07-31T02:27:09.866Z,24.63
2018-07-31T02:29:44.820Z,27.83
2018-07-31T02:32:14.735Z,23.43
2018-07-31T02:34:42.853Z,23.33
2018-07-31T02:37:12.484Z,24.77
2018-07-31T02:39:41.718Z,25.67
2018-07-31T02:42:10.338Z,23.67
2018-07-31T02:44:40.428Z,24.00
2018-07-31T02:47:09.977Z,30.40
2018-07-31T02:49:38.751Z,29.47
2018-07-31T02:52:06.909Z,20.97
2018-07-31T02:54:36.301Z,21.30
2018-07-31T02:57:06.767Z,25.13
2018-07-31T02:59:36.612Z,20.10
2018-07-31T03:02:07.038Z,20.10
2018-07-31T03:04:37.205Z,23.67
2018-07-31T03:07:05.263Z,26.93
2018-07-31T03:09:34.555Z,20.77
2018-07-31T03:12:04.405Z,24.73
2018-07-31T03:14:36.821Z,28.33
2018-07-31T03:17:05.010Z,22.47
2018-07-31T03:19:33.052Z,27.30
2018-07-31T03:22:01.859Z,22.60
2018-07-31T03:24:34.258Z,22.97
2018-07-31T03:27:05.326Z,21.23
2018-07-31T03:29:37.081Z,18.93
2018-07-31T03:32:06.144Z,20.17
2018-07-31T03:34:35.349Z,24.40
2018-07-31T03:37:07.855Z,28.80
2018-07-31T03:39:36.033Z,27.07
2018-07-31T03:42:05.900Z,33.07
2018-07-31T03:44:34.528Z,27.33
2018-07-31T03:47:03.303Z,24.13
2018-07-31T03:49:34.423Z,19.93
2018-07-31T03:52:03.587Z,22.97
2018-07-31T03:54:33.309Z,21.93
2018-07-31T03:57:03.858Z,24.43
2018-07-31T03:59:34.279Z,22.63
2018-07-31T04:02:03.745Z,24.60
2018-07-31T04:04:34.456Z,28.87
2018-07-31T04:07:02.694Z,24.03
2018-07-31T04:09:33.069Z,27.90
2018-07-31T04:12:01.090Z,23.57
2018-07-31T04:14:30.420Z,31.00
2018-07-31T04:16:58.640Z,29.50
2018-07-31T04:19:26.656Z,26.97
2018-07-31T04:21:54.575Z,51.43
2018-07-31T04:24:22.319Z,30.17
2018-07-31T04:26:50.222Z,29.47
2018-07-31T04:29:18.122Z,30.50
2018-07-31T04:31:46.056Z,26.50
2018-07-31T04:34:14.003Z,30.80
2018-07-31T04:36:41.947Z,29.77
2018-07-31T04:39:11.983Z,28.60
2018-07-31T04:41:40.497Z,28.73
2018-07-31T04:44:08.374Z,29.60
2018-07-31T04:46:36.925Z,28.83
2018-07-31T04:49:04.861Z,21.23
2018-07-31T04:51:32.737Z,30.47
2018-07-31T04:54:00.937Z,23.77
2018-07-31T04:56:28.691Z,25.87
2018-07-31T04:58:58.211Z,28.33
2018-07-31T05:01:26.211Z,31.37
2018-07-31T05:03:55.153Z,29.40
2018-07-31T05:06:23.084Z,30.40
2018-07-31T05:08:50.978Z,32.77
2018-07-31T05:11:18.923Z,39.17
2018-07-31T05:13:46.846Z,28.23
2018-07-31T05:16:14.569Z,35.00
2018-07-31T05:18:42.568Z,36.63
2018-07-31T05:21:10.439Z,34.10
2018-07-31T05:23:38.217Z,38.53
2018-07-31T05:26:06.241Z,36.53
2018-07-31T05:28:34.108Z,34.00
2018-07-31T05:31:02.044Z,39.30
2018-07-31T05:33:29.987Z,38.93
2018-07-31T05:35:58.705Z,41.40
2018-07-31T05:38:27.226Z,36.73
2018-07-31T05:40:55.169Z,30.60
2018-07-31T05:43:23.109Z,33.90
2018-07-31T05:45:51.006Z,34.00
2018-07-31T05:48:18.892Z,31.60
2018-07-31T05:50:46.740Z,27.97
2018-07-31T05:53:14.662Z,36.33
2018-07-31T05:55:42.526Z,28.57
2018-07-31T05:58:10.271Z,31.93
2018-07-31T06:00:39.370Z,28.87
2018-07-31T06:03:07.881Z,25.63
2018-07-31T06:05:35.884Z,35.03
2018-07-31T06:08:04.455Z,30.80
2018-07-31T06:10:32.965Z,26.53
2018-07-31T06:13:00.896Z,24.13
2018-07-31T06:15:28.810Z,26.07
2018-07-31T06:17:58.250Z,21.37
2018-07-31T06:20:26.912Z,24.30
2018-07-31T06:22:54.813Z,24.30
2018-07-31T06:25:23.076Z,26.10
2018-07-31T06:27:51.505Z,23.47
2018-07-31T06:30:19.973Z,19.70
2018-07-31T06:32:47.919Z,23.73
2018-07-31T06:35:16.612Z,23.77
2018-07-31T06:37:44.540Z,24.80
2018-07-31T06:40:12.448Z,31.60
2018-07-31T06:42:40.864Z,26.93
2018-07-31T06:45:08.824Z,24.93
2018-07-31T06:47:37.046Z,25.47
2018-07-31T06:50:05.483Z,19.97
2018-07-31T06:52:33.492Z,19.67
2018-07-31T06:55:01.222Z,19.47
2018-07-31T06:57:29.098Z,20.07
2018-07-31T06:59:57.320Z,22.40
2018-07-31T07:02:25.178Z,19.00
2018-07-31T07:04:53.111Z,16.30
2018-07-31T07:07:21.980Z,23.60
2018-07-31T07:09:49.877Z,23.43
2018-07-31T07:12:17.678Z,23.10
2018-07-31T07:14:45.398Z,19.90
2018-07-31T07:17:13.370Z,21.70
2018-07-31T07:19:41.725Z,27.43
2018-07-31T07:22:09.649Z,23.67
2018-07-31T07:24:37.601Z,17.50
2018-07-31T07:27:05.795Z,17.90
2018-07-31T07:29:34.008Z,18.90
2018-07-31T07:32:01.979Z,19.43
2018-07-31T07:34:30.027Z,16.47
2018-07-31T07:36:57.972Z,20.30
2018-07-31T07:39:25.888Z,13.87
2018-07-31T07:41:53.814Z,19.40
2018-07-31T07:44:21.535Z,15.73
2018-07-31T07:46:49.502Z,22.83
2018-07-31T07:49:17.417Z,20.07
2018-07-31T07:51:45.329Z,22.87
2018-07-31T07:54:13.666Z,14.87
2018-07-31T07:56:41.549Z,18.50
2018-07-31T07:59:09.499Z,15.50
2018-07-31T08:01:37.350Z,18.73
2018-07-31T08:04:05.643Z,15.63
2018-07-31T08:06:33.545Z,14.30
2018-07-31T08:09:02.724Z,16.70
2018-07-31T08:11:30.618Z,21.13
2018-07-31T08:13:58.547Z,22.57
2018-07-31T08:16:27.439Z,15.53
2018-07-31T08:18:55.338Z,18.13
2018-07-31T08:21:24.667Z,16.50
2018-07-31T08:23:53.401Z,16.70
2018-07-31T08:26:21.449Z,11.83
2018-07-31T08:28:49.859Z,12.73
2018-07-31T08:31:17.747Z,14.70
2018-07-31T08:33:45.683Z,11.80
2018-07-31T08:36:13.412Z,14.13
2018-07-31T08:38:41.344Z,11.33
2018-07-31T08:41:09.305Z,17.53
2018-07-31T08:43:37.202Z,11.77
2018-07-31T08:46:05.182Z,14.10
2018-07-31T08:48:33.079Z,11.90
2018-07-31T08:51:00.906Z,17.33
2018-07-31T08:53:28.755Z,11.10
2018-07-31T08:55:56.635Z,9.67
2018-07-31T08:58:24.493Z,13.90
2018-07-31T09:00:52.436Z,9.67
2018-07-31T09:03:20.999Z,13.70
2018-07-31T09:05:48.881Z,9.20
2018-07-31T09:08:16.667Z,13.13
2018-07-31T09:10:44.675Z,9.83
2018-07-31T09:13:12.571Z,13.00
2018-07-31T09:15:40.490Z,10.77
2018-07-31T09:18:08.905Z,9.00
2018-07-31T09:20:37.989Z,15.73
2018-07-31T09:23:05.739Z,11.40
2018-07-31T09:25:40.811Z,11.93
2018-07-31T09:28:11.410Z,9.07
2018-07-31T09:30:43.892Z,12.33
2018-07-31T09:33:11.850Z,8.90
2018-07-31T09:35:39.716Z,41.13
2018-07-31T09:38:07.623Z,10.13
2018-07-31T09:40:35.546Z,16.97
2018-07-31T09:43:04.169Z,21.73
2018-07-31T09:45:31.918Z,13.20
2018-07-31T09:47:59.868Z,13.17
2018-07-31T09:50:28.127Z,12.63
2018-07-31T09:52:56.048Z,14.60
2018-07-31T09:55:23.997Z,14.07
2018-07-31T09:57:58.549Z,11.00
2018-07-31T10:00:32.041Z,10.00
2018-07-31T10:02:59.780Z,18.60
2018-07-31T10:05:27.873Z,9.30
2018-07-31T10:07:55.718Z,14.60
2018-07-31T10:10:24.271Z,7.20
2018-07-31T10:12:52.199Z,8.60
2018-07-31T10:15:20.123Z,8.13
2018-07-31T10:17:47.998Z,5.97
2018-07-31T10:20:16.194Z,7.43
2018-07-31T10:22:44.247Z,6.13
2018-07-31T10:25:12.025Z,7.47
2018-07-31T10:27:39.930Z,9.07
2018-07-31T10:30:08.109Z,8.30
2018-07-31T10:32:36.012Z,9.67
2018-07-31T10:35:04.000Z,5.90
2018-07-31T10:37:32.709Z,11.47
2018-07-31T10:40:00.633Z,13.73
2018-07-31T10:42:28.609Z,7.50
2018-07-31T10:44:56.583Z,9.07
2018-07-31T10:47:25.191Z,8.13
2018-07-31T10:49:52.984Z,5.13
2018-07-31T10:52:21.043Z,9.47
2018-07-31T10:54:49.136Z,4.73
2018-07-31T10:57:17.114Z,8.43
2018-07-31T10:59:45.113Z,8.10
2018-07-31T11:02:13.003Z,6.70
2018-07-31T11:04:41.030Z,6.80
2018-07-31T11:07:08.930Z,6.50
2018-07-31T11:09:36.857Z,4.90
2018-07-31T11:12:05.784Z,5.27
2018-07-31T11:14:33.671Z,7.00
2018-07-31T11:17:01.430Z,8.50
2018-07-31T11:19:29.340Z,6.60
2018-07-31T11:21:57.244Z,5.70
2018-07-31T11:24:25.311Z,5.40
2018-07-31T11:26:53.549Z,5.10
2018-07-31T11:29:21.347Z,4.40
2018-07-31T11:31:49.297Z,6.50
2018-07-31T11:34:17.246Z,5.57
2018-07-31T11:36:45.835Z,6.80
2018-07-31T11:39:13.832Z,8.83
2018-07-31T11:41:42.605Z,8.27
2018-07-31T11:44:10.828Z,9.00
2018-07-31T11:46:38.744Z,5.93
2018-07-31T11:49:07.207Z,5.87
2018-07-31T11:51:35.793Z,8.77
2018-07-31T11:54:03.854Z,8.27
2018-07-31T11:56:31.941Z,6.90
2018-07-31T11:59:00.439Z,6.10
2018-07-31T12:01:28.400Z,4.90
2018-07-31T12:03:56.603Z,9.73
2018-07-31T12:06:24.858Z,6.93
2018-07-31T12:08:52.874Z,6.63
2018-07-31T12:11:20.787Z,9.27
2018-07-31T12:13:48.710Z,10.20
2018-07-31T12:16:16.635Z,7.20
2018-07-31T12:18:44.630Z,8.53
2018-07-31T12:21:13.066Z,10.53
2018-07-31T12:23:40.838Z,8.97
2018-07-31T12:26:09.474Z,5.80
2018-07-31T12:28:37.372Z,6.60
2018-07-31T12:31:05.164Z,6.37
2018-07-31T12:33:33.437Z,6.13
2018-07-31T12:36:01.394Z,8.10
2018-07-31T12:38:29.194Z,7.40
2018-07-31T12:40:57.048Z,7.07
2018-07-31T12:43:24.819Z,9.20
2018-07-31T12:45:52.752Z,6.80
2018-07-31T12:48:20.689Z,7.10
2018-07-31T12:50:48.627Z,7.33
2018-07-31T12:53:16.989Z,6.57
2018-07-31T12:55:44.968Z,6.10
2018-07-31T12:58:13.542Z,7.03
2018-07-31T13:00:42.256Z,9.90
2018-07-31T13:03:10.917Z,12.03
2018-07-31T13:05:38.857Z,9.40
2018-07-31T13:08:06.780Z,10.90
2018-07-31T13:10:35.131Z,9.73
2018-07-31T13:13:03.082Z,8.53
2018-07-31T13:15:31.003Z,8.93
2018-07-31T13:17:59.598Z,12.17
2018-07-31T13:20:27.551Z,5.93
2018-07-31T13:22:55.655Z,7.30
2018-07-31T13:25:23.525Z,6.53
2018-07-31T13:27:51.900Z,11.50
2018-07-31T13:30:20.379Z,7.33
2018-07-31T13:32:48.176Z,7.10
2018-07-31T13:35:15.959Z,13.00
2018-07-31T13:37:44.216Z,8.07
2018-07-31T13:40:12.294Z,8.80
2018-07-31T13:42:40.264Z,14.63
2018-07-31T13:45:08.314Z,6.00
2018-07-31T13:50:36.794Z,8.83
2018-07-31T13:53:04.692Z,6.30
2018-07-31T13:55:32.710Z,10.20
2018-07-31T13:58:00.604Z,8.30
2018-07-31T14:00:29.108Z,8.73
2018-07-31T14:02:57.014Z,6.30
2018-07-31T14:05:25.295Z,7.27
2018-07-31T14:07:53.224Z,7.27
2018-07-31T14:10:21.041Z,9.30
2018-07-31T14:12:48.907Z,6.70
2018-07-31T14:15:16.809Z,7.23
2018-07-31T14:17:44.766Z,7.20
2018-07-31T14:20:12.695Z,9.03
2018-07-31T14:22:40.539Z,6.43
2018-07-31T14:25:08.337Z,7.47
2018-07-31T14:27:37.011Z,7.77
2018-07-31T14:30:21.056Z,6.63
2018-07-31T14:32:48.955Z,8.43
2018-07-31T14:35:16.886Z,9.37
2018-07-31T14:37:45.158Z,8.03
2018-07-31T14:40:12.920Z,9.33
2018-07-31T14:42:40.830Z,10.00
2018-07-31T14:45:09.897Z,6.03
2018-07-31T14:47:38.407Z,5.57
2018-07-31T14:50:06.888Z,12.60
2018-07-31T14:52:35.748Z,9.07
2018-07-31T14:55:03.809Z,10.93
2018-07-31T14:57:31.747Z,5.97
2018-07-31T14:59:59.583Z,11.20
2018-07-31T15:02:27.906Z,8.10
2018-07-31T15:04:55.708Z,8.50
2018-07-31T15:07:23.606Z,7.87
2018-07-31T15:09:52.024Z,7.60
2018-07-31T15:12:19.991Z,8.00
2018-07-31T15:14:48.086Z,11.73
2018-07-31T15:17:15.998Z,10.53
2018-07-31T15:19:43.978Z,7.40
2018-07-31T15:22:12.487Z,7.40
2018-07-31T15:24:40.371Z,23.13
2018-07-31T15:27:08.304Z,9.33
2018-07-31T15:29:36.262Z,7.93
2018-07-31T15:32:04.210Z,6.10
2018-07-31T15:34:32.368Z,7.90
2018-07-31T15:37:00.294Z,6.80
2018-07-31T15:39:28.238Z,8.17
2018-07-31T15:41:56.180Z,7.00
2018-07-31T15:44:24.042Z,8.87
2018-07-31T15:46:51.968Z,5.40
2018-07-31T15:49:20.242Z,7.90
2018-07-31T15:51:48.238Z,9.10
2018-07-31T15:54:16.826Z,9.47
2018-07-31T15:56:44.761Z,6.53
2018-07-31T15:59:12.639Z,9.83
2018-07-31T16:01:40.551Z,11.77
2018-07-31T16:04:08.950Z,5.80
2018-07-31T16:06:37.041Z,9.33
2018-07-31T16:09:07.418Z,8.40
2018-07-31T16:11:36.594Z,7.13
2018-07-31T16:14:04.418Z,8.93
2018-07-31T16:16:32.361Z,8.23
2018-07-31T16:19:00.830Z,7.40
2018-07-31T16:21:29.580Z,9.03
2018-07-31T16:23:57.723Z,13.43
2018-07-31T16:26:25.800Z,6.40
2018-07-31T16:28:53.777Z,10.23
2018-07-31T16:31:22.100Z,9.57
2018-07-31T16:33:50.357Z,6.33
2018-07-31T16:36:18.291Z,13.07
2018-07-31T16:38:46.287Z,10.03
2018-07-31T16:41:14.532Z,8.70
2018-07-31T16:43:42.438Z,5.53
2018-07-31T16:46:10.366Z,9.30
2018-07-31T16:48:38.858Z,6.87
2018-07-31T16:51:06.792Z,7.90
2018-07-31T16:53:35.616Z,20.83
2018-07-31T16:56:03.629Z,12.03
2018-07-31T16:58:31.460Z,11.33
2018-07-31T17:00:59.359Z,7.57
2018-07-31T17:03:27.742Z,9.67
2018-07-31T17:05:55.690Z,5.80
2018-07-31T17:08:23.563Z,6.53
2018-07-31T17:10:51.463Z,7.00
2018-07-31T17:13:20.043Z,6.10
2018-07-31T17:15:48.563Z,9.30
2018-07-31T17:18:16.477Z,10.53
2018-07-31T17:20:44.411Z,5.97
2018-07-31T17:23:12.337Z,6.20
2018-07-31T17:25:41.065Z,9.80
2018-07-31T17:28:08.985Z,11.93
2018-07-31T17:30:36.814Z,18.17
2018-07-31T17:33:04.826Z,9.20
2018-07-31T17:35:32.781Z,7.00
2018-07-31T17:38:00.733Z,11.77
2018-07-31T17:40:29.292Z,7.53
2018-07-31T17:42:57.189Z,9.60
2018-07-31T17:45:24.980Z,20.90
2018-07-31T17:47:52.892Z,24.97
2018-07-31T17:50:20.774Z,14.53
2018-07-31T17:52:48.698Z,23.23
2018-07-31T17:55:16.696Z,25.37
2018-07-31T17:57:44.653Z,7.77
2018-07-31T18:00:12.627Z,15.93
2018-07-31T18:02:40.630Z,9.90
2018-07-31T18:05:08.594Z,7.47
2018-07-31T18:07:36.700Z,9.03
2018-07-31T18:10:04.789Z,10.63
2018-07-31T18:12:32.692Z,11.17
2018-07-31T18:15:00.663Z,14.40
2018-07-31T18:17:28.560Z,19.40
2018-07-31T18:19:57.341Z,12.90
2018-07-31T18:22:25.288Z,10.77
2018-07-31T18:24:53.153Z,18.33
2018-07-31T18:27:21.152Z,23.40
2018-07-31T18:29:49.105Z,16.43
2018-07-31T18:32:16.946Z,20.90
2018-07-31T18:34:45.491Z,23.20
2018-07-31T18:37:13.424Z,29.83
2018-07-31T18:39:41.319Z,14.33
2018-07-31T18:42:09.343Z,16.33
2018-07-31T18:44:38.094Z,40.03
2018-07-31T18:47:06.432Z,24.03
2018-07-31T18:49:34.220Z,19.13
2018-07-31T18:52:02.007Z,17.10
2018-07-31T18:54:29.941Z,19.63
2018-07-31T18:56:57.838Z,19.73
2018-07-31T18:59:25.844Z,14.93
2018-07-31T19:01:53.785Z,17.13
2018-07-31T19:04:21.682Z,12.33
2018-07-31T19:06:49.650Z,13.13
2018-07-31T19:09:17.520Z,18.07
2018-07-31T19:11:46.782Z,24.47
2018-07-31T19:14:14.506Z,15.00
2018-07-31T19:16:42.387Z,15.43
2018-07-31T19:19:10.730Z,19.40
2018-07-31T19:21:38.658Z,12.83
2018-07-31T19:24:06.595Z,17.03
2018-07-31T19:26:34.509Z,19.00
2018-07-31T19:29:02.648Z,22.50
2018-07-31T19:31:30.696Z,21.03
2018-07-31T19:33:58.614Z,14.53
2018-07-31T19:36:26.382Z,16.90
2018-07-31T19:38:54.374Z,15.70
2018-07-31T19:41:23.211Z,14.83
2018-07-31T19:43:50.975Z,13.80
2018-07-31T19:46:18.967Z,25.03
2018-07-31T19:48:47.246Z,13.50
2018-07-31T19:51:15.050Z,18.47
2018-07-31T19:53:43.078Z,9.80
2018-07-31T19:56:11.534Z,16.50
2018-07-31T19:58:39.440Z,17.80
2018-07-31T20:01:08.193Z,18.97
2018-07-31T20:03:36.098Z,24.60
2018-07-31T20:06:04.317Z,25.97
2018-07-31T20:08:32.208Z,14.87
2018-07-31T20:11:00.179Z,15.20
2018-07-31T20:13:28.204Z,19.33
2018-07-31T20:15:56.178Z,16.53
2018-07-31T20:18:24.161Z,16.67
2018-07-31T20:20:52.481Z,35.63
2018-07-31T20:23:20.311Z,17.57
2018-07-31T20:25:48.078Z,19.73
2018-07-31T20:28:16.048Z,15.57
2018-07-31T20:30:44.382Z,19.10
2018-07-31T20:33:12.342Z,21.50
2018-07-31T20:35:41.626Z,23.10
2018-07-31T20:38:09.554Z,38.70
2018-07-31T20:40:38.220Z,24.97
2018-07-31T20:43:06.154Z,29.00
2018-07-31T20:45:34.443Z,17.40
2018-07-31T20:48:02.439Z,17.97
2018-07-31T20:50:30.375Z,18.90
2018-07-31T20:52:58.196Z,19.40
2018-07-31T20:55:26.129Z,21.30
2018-07-31T20:57:54.022Z,15.13
2018-07-31T21:00:22.525Z,22.67
2018-07-31T21:02:50.451Z,21.83
2018-07-31T21:05:18.379Z,23.47
2018-07-31T21:07:46.179Z,16.10
2018-07-31T21:10:14.561Z,26.33
2018-07-31T21:12:43.275Z,20.03
2018-07-31T21:15:11.207Z,16.50
2018-07-31T21:17:39.065Z,17.80
2018-07-31T21:20:07.439Z,14.67
2018-07-31T21:22:35.342Z,20.70
2018-07-31T21:25:03.345Z,15.00
2018-07-31T21:27:31.286Z,15.77
2018-07-31T21:29:59.224Z,22.00
2018-07-31T21:32:27.905Z,20.60
2018-07-31T21:34:55.821Z,13.00
2018-07-31T21:37:23.792Z,26.73
2018-07-31T21:39:51.862Z,12.73
2018-07-31T21:42:19.789Z,11.73
2018-07-31T21:44:47.551Z,15.23
2018-07-31T21:47:15.249Z,30.17
2018-07-31T21:49:43.071Z,13.50
2018-07-31T21:52:11.141Z,17.30
2018-07-31T21:54:39.319Z,15.97
2018-07-31T21:57:07.476Z,16.10
2018-07-31T21:59:35.261Z,22.83
2018-07-31T22:02:03.248Z,16.93
2018-07-31T22:04:31.211Z,16.37
2018-07-31T22:07:00.671Z,16.30
2018-07-31T22:09:35.139Z,19.37
2018-07-31T22:12:03.054Z,28.33
2018-07-31T22:14:30.965Z,17.63
2018-07-31T22:16:59.857Z,17.80
2018-07-31T22:19:27.749Z,17.53
2018-07-31T22:21:57.204Z,29.03
2018-07-31T22:24:25.117Z,24.40
2018-07-31T22:26:52.976Z,15.33
2018-07-31T22:29:20.727Z,24.57
2018-07-31T22:31:48.595Z,20.73
2018-07-31T22:34:16.656Z,18.60
2018-07-31T22:36:44.503Z,18.97
2018-07-31T22:39:12.421Z,25.80
2018-07-31T22:41:41.182Z,22.87
2018-07-31T22:44:08.910Z,21.30
2018-07-31T22:46:36.796Z,17.27
2018-07-31T22:49:05.710Z,21.27
2018-07-31T22:51:34.554Z,16.47
2018-07-31T22:54:02.448Z,20.63
2018-07-31T22:56:30.209Z,20.73
2018-07-31T22:58:58.716Z,22.13
2018-07-31T23:01:26.708Z,17.67
2018-07-31T23:03:54.973Z,18.47
2018-07-31T23:06:22.850Z,19.10
2018-07-31T23:08:50.761Z,16.80
2018-07-31T23:11:18.691Z,20.30
2018-07-31T23:13:46.592Z,21.50
2018-07-31T23:16:14.495Z,17.17
2018-07-31T23:18:42.399Z,18.57
2018-07-31T23:21:11.087Z,15.93
2018-07-31T23:23:38.986Z,19.03
2018-07-31T23:26:07.055Z,19.07
2018-07-31T23:28:36.974Z,18.13
2018-07-31T23:31:04.877Z,19.27
2018-07-31T23:33:32.569Z,22.50
2018-07-31T23:36:01.225Z,17.03
2018-07-31T23:38:30.425Z,20.70
2018-07-31T23:40:58.869Z,18.57
2018-07-31T23:43:26.787Z,19.03
2018-07-31T23:45:54.688Z,15.33
2018-07-31T23:48:23.153Z,21.10
2018-07-31T23:50:51.048Z,21.40
2018-07-31T23:53:18.949Z,16.10
2018-07-31T23:55:46.740Z,17.50
2018-07-31T23:58:15.282Z,18.23
